Latest Weather Observations for Stenhouse Bay

IDS60801

Issued at 9:51 am CST Tuesday 16 August 2022 (issued every 10 minutes, with the page automatically refreshed every 10 minutes)

About weather observations | Map of weather stations | Latest weather observations for SA | Other Formats
Station Details ID: 022049 Name: STENHOUSE BAY Lat: -35.28 Lon: 136.94 Height: 42.0 m
Data from the previous 72 hours. | See also: Recent months at Stenhouse Bay
Date/Time
CST
Temp
°C
App
Temp
°C
Dew
Point
°C
Rel
Hum
%
Delta-T
°C
Wind Press
QNH
hPa
Press
MSL
hPa
Rain since
9am
mm
Dir  Spd
km/h
Gust
km/h
Spd
kts
Gust
kts
16/09:30am 14.1 10.9 6.9 62 3.5 S 13 17 7 9 1020.2 1020.2 0.0
16/09:00am 13.6 9.7 6.9 64 3.2 SSE 17 19 9 10 1020.3 1020.3 0.4
16/08:30am 13.1 8.8 6.9 66 3.0 S 19 24 10 13 1020.1 1020.1 0.4
16/08:00am 12.6 7.3 6.9 68 2.7 S 24 32 13 17 1019.8 1019.8 0.4
16/07:30am 12.1 6.8 6.6 69 2.6 S 24 32 13 17 1019.4 1019.4 0.4
16/07:00am 11.9 6.6 6.8 71 2.4 S 24 30 13 16 1019.1 1019.1 0.4
16/06:30am 12.1 7.2 6.8 70 2.5 S 22 28 12 15 1018.9 1018.9 0.4
16/06:00am 12.0 7.5 6.9 71 2.4 S 20 26 11 14 1018.5 1018.5 0.4
16/05:30am 11.9 8.5 7.6 75 2.1 SSW 15 22 8 12 1018.4 1018.4 0.4
16/05:00am 11.9 8.0 7.2 73 2.3 SSW 17 24 9 13 1018.2 1018.2 0.4
16/04:30am 11.9 7.7 7.4 74 2.2 SSW 19 26 10 14 1017.8 1017.8 0.4
16/04:00am 11.9 8.5 7.8 76 2.0 SW 15 22 8 12 1017.4 1017.4 0.4
16/03:30am 11.8 8.4 7.7 76 2.0 SSW 15 20 8 11 1017.0 1017.0 0.4
16/03:00am 11.9 7.6 7.8 76 2.0 S 20 26 11 14 1016.2 1016.2 0.4
16/02:30am 11.8 7.6 7.5 75 2.1 S 19 22 10 12 1016.4 1016.4 0.4
16/02:00am 12.0 8.2 7.7 75 2.1 SSW 17 22 9 12 1016.9 1016.9 0.4
16/01:30am 12.2 8.6 8.3 77 1.9 S 17 22 9 12 1016.9 1016.9 0.4
16/01:00am 12.2 7.6 8.3 77 1.9 S 22 28 12 15 1016.5 1016.5 0.4
16/12:30am 12.4 8.2 8.1 75 2.1 SSW 20 26 11 14 1016.4 1016.4 0.4
16/12:00am 12.4 9.4 9.1 80 1.7 SSW 15 20 8 11 1016.3 1016.3 0.4
 
Date/Time
CST
Temp
°C
App
Temp
°C
Dew
Point
°C
Rel
Hum
%
Delta-T
°C
Wind Press
QNH
hPa
Press
MSL
hPa
Rain since
9am
mm
Dir  Spd
km/h
Gust
km/h
Spd
kts
Gust
kts
15/11:30pm 12.4 8.8 8.5 77 1.9 SSW 17 22 9 12 1016.2 1016.2 0.4
15/11:00pm 12.6 8.6 8.1 74 2.2 SSW 19 28 10 15 1015.8 1015.8 0.4
15/10:30pm 12.4 8.3 7.7 73 2.3 SSW 19 28 10 15 1015.7 1015.7 0.4
15/10:00pm 12.6 8.4 8.3 75 2.1 SSW 20 28 11 15 1015.8 1015.8 0.4
15/09:30pm 12.5 7.9 8.2 75 2.1 SSW 22 30 12 16 1015.3 1015.3 0.4
15/09:00pm 12.4 7.8 8.3 76 2.0 SSW 22 30 12 16 1015.0 1015.0 0.4
15/08:30pm 12.5 7.5 8.0 74 2.2 SSW 24 33 13 18 1014.5 1014.5 0.4
15/08:00pm 12.5 6.7 8.0 74 2.2 SSW 28 35 15 19 1014.3 1014.3 0.4
15/07:30pm 12.6 7.2 8.1 74 2.2 SSW 26 33 14 18 1013.8 1013.8 0.4
15/07:00pm 12.7 8.0 9.2 79 1.8 S 24 30 13 16 1013.5 1013.5 0.4
15/06:30pm 12.7 7.4 8.6 76 2.0 SSW 26 39 14 21 1013.1 1013.1 0.4
15/06:00pm 12.7 7.8 8.6 76 2.0 SW 24 37 13 20 1012.8 1012.8 0.4
15/05:30pm 12.6 7.7 8.5 76 2.0 SW 24 30 13 16 1011.9 1011.9 0.4
15/05:00pm 13.0 8.6 9.1 77 2.0 SW 22 32 12 17 1011.6 1011.6 0.4
15/04:30pm 12.7 7.4 8.6 76 2.0 SW 26 33 14 18 1011.5 1011.5 0.4
15/04:00pm 13.4 9.0 7.6 68 2.8 SW 20 28 11 15 1011.0 1011.0 0.4
15/03:30pm 13.4 9.1 8.0 70 2.7 SW 20 28 11 15 1010.9 1010.9 0.4
15/03:00pm 13.0 9.3 9.6 80 1.7 SW 19 22 10 12 1010.7 1010.7 0.4
15/02:30pm 12.7 8.8 9.3 80 1.7 SW 20 28 11 15 1010.4 1010.4 0.2
15/02:00pm 13.1 9.8 9.5 79 1.8 SW 17 24 9 13 1010.2 1010.2 0.2
15/01:30pm 14.5 12.2 8.9 69 2.9 WSW 11 15 6 8 1010.2 1010.2 0.2
15/01:00pm 14.1 12.7 9.7 75 2.3 SW 7 13 4 7 1010.4 1010.4 0.2
15/12:30pm 13.9 12.2 9.7 76 2.2 SW 9 11 5 6 1010.7 1010.7 0.2
15/12:00pm 13.8 12.4 9.5 75 2.2 SW 7 11 4 6 1010.8 1010.8 0.2
15/11:30am 14.7 13.5 10.3 75 2.3 SSW 7 11 4 6 1010.9 1010.9 0.2
15/11:00am 13.6 12.4 9.5 76 2.1 SSW 6 7 3 4 1010.9 1010.9 0.2
15/10:30am 13.3 12.1 9.4 77 2.0 SW 6 7 3 4 1010.9 1010.9 0.2
15/10:00am 13.5 13.0 11.9 90 0.9 N 6 7 3 4 1010.8 1010.8 0.2
15/09:30am 13.0 12.9 12.2 95 0.4 NNW 4 7 2 4 1010.8 1010.8 0.2
15/09:00am 11.6 11.5 10.8 95 0.4 NW 2 6 1 3 1010.8 1010.8 9.4
15/08:30am 10.9 10.2 10.0 94 0.5 WNW 4 7 2 4 1010.6 1010.6 9.4
15/08:00am 10.8 10.4 9.7 93 0.6 SSE 2 6 1 3 1010.6 1010.6 7.2
15/07:30am 10.8 10.1 9.9 94 0.5 SSE 4 9 2 5 1010.3 1010.3 6.0
15/07:00am 10.4 9.6 9.5 94 0.5 WSW 4 4 2 2 1010.0 1010.0 5.8
15/06:30am 10.5 9.3 9.6 94 0.5 WSW 6 7 3 4 1010.2 1010.2 5.0
15/06:00am 10.3 8.1 9.2 93 0.5 NW 11 15 6 8 1010.1 1010.1 3.4
15/05:30am 10.4 8.2 9.2 92 0.6 WNW 11 13 6 7 1010.1 1010.1 3.2
15/05:00am 9.7 7.2 8.3 91 0.7 WNW 11 13 6 7 1010.0 1010.0 3.2
15/04:30am 9.8 7.0 8.4 91 0.7 WNW 13 13 7 7 1010.1 1010.1 3.2
15/04:00am 10.0 7.2 8.6 91 0.7 W 13 13 7 7 1010.2 1010.2 3.2
15/03:30am 10.2 7.8 8.8 91 0.7 W 11 13 6 7 1010.5 1010.5 3.2
15/03:00am 10.6 8.4 9.4 92 0.6 W 11 13 6 7 1010.4 1010.4 3.2
15/02:30am 10.6 8.0 9.2 91 0.7 W 13 13 7 7 1010.7 1010.7 3.2
15/02:00am 10.5 8.2 9.1 91 0.7 W 11 13 6 7 1011.1 1011.1 3.2
15/01:30am 10.7 8.9 9.5 92 0.6 WNW 9 13 5 7 1011.3 1011.3 3.2
15/01:00am 10.9 8.8 9.7 92 0.6 W 11 13 6 7 1011.5 1011.5 3.0
15/12:30am 10.9 8.4 9.8 93 0.6 WSW 13 15 7 8 1011.8 1011.8 3.0
15/12:00am 10.8 8.7 9.6 92 0.6 W 11 17 6 9 1012.0 1012.0 3.0
 
Date/Time
CST
Temp
°C
App
Temp
°C
Dew
Point
°C
Rel
Hum
%
Delta-T
°C
Wind Press
QNH
hPa
Press
MSL
hPa
Rain since
9am
mm
Dir  Spd
km/h
Gust
km/h
Spd
kts
Gust
kts
14/11:30pm 11.0 6.6 8.9 87 1.0 W 22 37 12 20 1012.5 1012.5 2.0
14/11:00pm 11.0 8.3 9.1 88 0.9 WNW 13 17 7 9 1012.8 1012.8 1.8
14/10:30pm 11.1 9.3 9.4 89 0.9 W 9 9 5 5 1013.1 1013.1 1.8
14/10:00pm 11.2 9.7 9.1 87 1.0 WSW 7 9 4 5 1013.2 1013.2 1.8
14/09:30pm 11.5 10.3 9.6 88 1.0 WSW 6 9 3 5 1013.3 1013.3 1.6
14/09:00pm 11.5 9.5 8.7 83 1.4 W 9 11 5 6 1013.4 1013.4 0.0
14/08:30pm 11.3 9.6 8.5 83 1.4 W 7 9 4 5 1013.5 1013.5 0.0
14/08:00pm 10.9 8.8 8.3 84 1.3 W 9 11 5 6 1013.5 1013.5 0.0
14/07:30pm 10.6 8.4 7.8 83 1.4 W 9 11 5 6 1013.6 1013.6 0.0
14/07:00pm 10.6 7.6 7.8 83 1.4 W 13 13 7 7 1013.6 1013.6 0.0
14/06:30pm 10.8 8.2 7.7 81 1.5 W 11 13 6 7 1013.2 1013.2 0.0
14/06:00pm 11.6 9.4 7.7 77 1.9 W 9 11 5 6 1013.1 1013.1 0.0
14/05:30pm 13.1 10.9 8.0 71 2.5 W 9 11 5 6 1013.2 1013.2 0.0
14/05:00pm 14.1 11.6 8.3 68 2.9 WSW 11 17 6 9 1013.2 1013.2 0.0
14/04:30pm 14.6 11.5 8.8 68 2.9 W 15 20 8 11 1013.4 1013.4 0.0
14/04:00pm 15.1 12.6 8.3 64 3.4 W 11 19 6 10 1013.2 1013.2 0.0
14/03:30pm 15.3 12.8 8.1 62 3.6 WSW 11 15 6 8 1013.5 1013.5 0.0
14/03:00pm 15.2 12.8 8.7 65 3.3 WSW 11 17 6 9 1013.4 1013.4 0.0
14/02:30pm 14.9 12.1 8.4 65 3.3 SW 13 19 7 10 1013.6 1013.6 0.0
14/02:00pm 15.0 11.5 8.9 67 3.1 WSW 17 20 9 11 1013.7 1013.7 0.0
14/01:30pm 15.7 12.6 8.9 64 3.5 WNW 15 22 8 12 1014.2 1014.2 0.0
14/01:00pm 15.2 11.3 8.7 65 3.3 W 19 24 10 13 1014.7 1014.7 0.0
14/12:30pm 14.8 11.0 9.0 68 3.0 SW 19 24 10 13 1015.2 1015.2 0.0
14/12:00pm 14.0 10.8 8.6 70 2.7 SW 15 20 8 11 1015.3 1015.3 0.0
14/11:30am 13.8 11.1 8.8 72 2.5 SW 13 17 7 9 1015.7 1015.7 0.0
14/11:00am 15.2 13.2 10.0 71 2.7 SW 11 17 6 9 1015.9 1015.9 0.0
14/10:30am 14.0 11.6 8.6 70 2.7 SW 11 13 6 7 1015.8 1015.8 0.0
14/10:00am 14.8 13.0 9.4 70 2.8 SW 9 13 5 7 1015.8 1015.8 0.0
14/09:30am 14.2 12.0 9.2 72 2.6 SW 11 17 6 9 1015.9 1015.9 0.0
14/09:00am 14.2 12.3 9.0 71 2.6 SW 9 13 5 7 1015.9 1015.9 1.0
14/08:30am 13.5 11.5 8.8 73 2.4 SW 9 13 5 7 1015.8 1015.8 1.0
14/08:00am 12.8 10.5 9.1 78 1.9 SW 11 17 6 9 1015.5 1015.5 1.0
14/07:30am 11.7 9.3 8.7 82 1.5 SW 11 15 6 8 1015.4 1015.4 1.0
14/07:00am 11.8 9.8 8.6 81 1.6 SW 9 13 5 7 1015.2 1015.2 1.0
14/06:30am 11.9 9.9 8.6 80 1.6 SW 9 13 5 7 1015.0 1015.0 1.0
14/06:00am 11.8 9.0 8.5 80 1.6 SW 13 17 7 9 1014.8 1014.8 1.0
14/05:30am 11.9 9.1 8.7 81 1.6 SW 13 17 7 9 1014.5 1014.5 1.0
14/05:00am 11.8 9.4 8.6 81 1.6 SW 11 17 6 9 1014.3 1014.3 1.0
14/04:30am 11.8 9.4 8.5 80 1.6 SW 11 17 6 9 1014.3 1014.3 1.0
14/04:00am 11.9 9.5 8.6 80 1.6 SW 11 17 6 9 1014.4 1014.4 1.0
14/03:30am 11.8 9.4 8.5 80 1.6 SW 11 17 6 9 1014.3 1014.3 1.0
14/03:00am 11.9 9.5 8.7 81 1.6 SW 11 19 6 10 1014.5 1014.5 1.0
14/02:30am 12.0 9.2 8.7 80 1.6 SSW 13 20 7 11 1014.7 1014.7 1.0
14/02:00am 12.1 9.0 8.9 81 1.6 SSW 15 20 8 11 1015.1 1015.1 1.0
14/01:30am 12.0 9.3 8.8 81 1.6 SSW 13 20 7 11 1015.1 1015.1 1.0
14/01:00am 12.1 9.4 8.8 80 1.6 SSW 13 19 7 10 1015.2 1015.2 1.0
14/12:30am 12.0 9.2 8.7 80 1.6 SSW 13 19 7 10 1015.3 1015.3 1.0
14/12:00am 12.0 9.2 8.7 80 1.6 SW 13 20 7 11 1015.4 1015.4 1.0
 
Date/Time
CST
Temp
°C
App
Temp
°C
Dew
Point
°C
Rel
Hum
%
Delta-T
°C
Wind Press
QNH
hPa
Press
MSL
hPa
Rain since
9am
mm
Dir  Spd
km/h
Gust
km/h
Spd
kts
Gust
kts
13/11:30pm 12.0 9.6 8.7 80 1.6 SW 11 20 6 11 1015.4 1015.4 1.0
13/11:00pm 12.3 9.2 8.8 79 1.8 SSW 15 22 8 12 1015.4 1015.4 1.0
13/10:30pm 12.4 9.3 8.9 79 1.8 SSW 15 22 8 12 1015.5 1015.5 1.0
13/10:00pm 12.2 9.1 8.7 79 1.7 SSW 15 24 8 13 1015.5 1015.5 1.0
13/09:30pm 12.2 9.4 8.7 79 1.7 SW 13 19 7 10 1015.6 1015.6 1.0
13/09:00pm 12.3 9.1 8.4 77 1.9 SSW 15 20 8 11 1015.7 1015.7 1.0
13/08:30pm 12.5 8.5 8.4 76 2.0 SSW 19 24 10 13 1015.5 1015.5 1.0
13/08:00pm 12.6 8.7 8.7 77 2.0 SSW 19 24 10 13 1015.3 1015.3 1.0
13/07:30pm 12.5 9.7 8.4 76 2.0 SSW 13 20 7 11 1015.1 1015.1 1.0
13/07:00pm 12.7 9.2 8.8 77 2.0 SSW 17 22 9 12 1014.7 1014.7 1.0
13/06:30pm 12.9 8.9 8.4 74 2.2 SSW 19 26 10 14 1014.6 1014.6 1.0
13/06:00pm 12.9 9.0 8.8 76 2.1 SSW 19 26 10 14 1014.3 1014.3 1.0
13/05:30pm 13.1 9.2 8.6 74 2.3 SW 19 30 10 16 1014.0 1014.0 1.0
13/05:00pm 13.6 9.2 8.9 73 2.4 SW 22 30 12 16 1013.9 1013.9 1.0
13/04:30pm 13.9 9.5 9.1 73 2.4 SW 22 32 12 17 1013.7 1013.7 1.0
13/04:00pm 14.2 10.2 9.0 71 2.6 SW 20 30 11 16 1013.6 1013.6 1.0
13/03:30pm 14.4 10.1 9.4 72 2.6 SW 22 32 12 17 1013.7 1013.7 1.0
13/03:00pm 14.5 9.8 9.3 71 2.7 SW 24 32 13 17 1013.7 1013.7 1.0
13/02:30pm 14.8 10.5 9.2 69 2.9 SW 22 30 12 16 1013.7 1013.7 1.0
13/02:00pm 14.7 10.8 9.5 71 2.7 SW 20 28 11 15 1013.8 1013.8 1.0
13/01:30pm 14.6 10.3 9.4 71 2.7 SW 22 30 12 16 1013.9 1013.9 1.0
13/01:00pm 14.4 10.6 9.8 74 2.4 SW 20 30 11 16 1014.1 1014.1 1.0
13/12:30pm 14.2 9.1 9.2 72 2.6 SW 26 33 14 18 1014.3 1014.3 1.0
13/12:00pm 13.2 9.3 9.3 77 2.0 SW 20 32 11 17 1014.7 1014.7 1.0
13/11:30am 13.5 10.2 10.9 84 1.4 SSW 19 28 10 15 1014.9 1014.9 1.0
13/11:00am 13.3 10.0 10.8 85 1.3 SSW 19 26 10 14 1015.0 1015.0 1.0
13/10:30am 12.3 8.0 9.3 82 1.5 SW 22 39 12 21 1014.9 1014.9 1.0
13/10:00am 14.1 9.6 9.9 76 2.2 SSW 24 35 13 19 1014.8 1014.8 0.0

Other formats

Comma delimited format used in spreadsheet applications
http://www.bom.gov.au/fwo/IDS60801/IDS60801.95806.axf

JavaScript Object Notation format (JSON) in row-major order
http://www.bom.gov.au/fwo/IDS60801/IDS60801.95806.json

Data quality

Most of these data are generated automatically and are frequently updated. Quality checks on data are not normally performed. It is possible for incorrect values to appear. Refer to information at About Latest Weather Observations and please check the disclaimer before using these data.